Sebeka, Minnesota
Current Conditions -  °F | °C
As of 2:53 PM on Tuesday 27 Jan 2015 (Local Time) from KADC Reporting Station
Overcast Overcast  
Wind Chill: 20°   Ceiling: 1100
Heat Index: 30°   Visibility: 10mi
Dew Point: 27°   Wind: 14mph
Humidity: 86%   Direction: 170°S
Pressure: 30.04"   Gusts: NA
Location:  46.63°N, 95.09°W
Report Text: KADC 272053Z AUTO 17012KT 10SM OVC011 M01/M03 A3004 RMK AO2
Loading
Personal Weather Stations






























Interactive Weather Map New forecast layout! Learn more

10-Day Weather Forecast

Advertisements
Track Severe Weather on mobile